Time;durP1;ratioP1;P1;durP2;ratioP2;P2;SDS_P1;SDS_P2;PMS_P1;PMS_P2;Temp;Humidity;BMP_temperature;BMP_pressure;BME280_temperature;BME280_humidity;BME280_pressure;Samples;Min_cycle;Max_cycle;Signal;HPM_P1;HPM_P2
2021/12/09 00:02:16;;;;;;;6.68;2.80;;;2.60;99.90;;;;;;5077859;28;20039;-43
2021/12/09 00:04:42;;;;;;;2.85;2.20;;;2.60;99.90;;;;;;5074561;28;20476;-45
2021/12/09 00:07:08;;;;;;;10.95;3.10;;;2.60;99.90;;;;;;5073855;28;20039;-43
2021/12/09 00:09:34;;;;;;;4.88;2.70;;;2.50;99.90;;;;;;5074739;28;20051;-42
2021/12/09 00:11:59;;;;;;;6.07;2.88;;;2.50;99.90;;;;;;5074316;28;20056;-43
2021/12/09 00:14:28;;;;;;;6.75;2.63;;;2.50;99.90;;;;;;5072917;28;20025;-43
2021/12/09 00:16:56;;;;;;;;;;;2.50;99.90;;;;;;5074603;28;20488;-43
2021/12/09 00:19:22;;;;;;;4.80;3.20;;;2.50;99.90;;;;;;5074631;28;19932;-43
2021/12/09 00:21:48;;;;;;;4.55;2.67;;;2.50;99.90;;;;;;5073804;28;20024;-44
2021/12/09 00:24:14;;;;;;;4.43;2.55;;;2.40;99.90;;;;;;5074134;28;20029;-42
2021/12/09 00:26:40;;;;;;;10.82;3.45;;;2.50;99.90;;;;;;5075149;28;20032;-44
2021/12/09 00:29:06;;;;;;;5.85;3.03;;;2.50;99.90;;;;;;5093677;28;20024;-43
2021/12/09 00:31:32;;;;;;;6.25;3.05;;;2.40;99.90;;;;;;5094538;28;20016;-44
2021/12/09 00:34:00;;;;;;;4.38;2.80;;;2.50;99.90;;;;;;5093884;28;20088;-43
2021/12/09 00:36:27;;;;;;;6.95;3.50;;;2.50;99.90;;;;;;5094000;28;20030;-44
2021/12/09 00:38:57;;;;;;;6.32;2.67;;;2.40;99.90;;;;;;5094310;28;20114;-43
2021/12/09 00:41:23;;;;;;;5.10;3.05;;;2.40;99.90;;;;;;5094335;28;20039;-43
2021/12/09 00:43:48;;;;;;;8.60;3.08;;;2.40;99.90;;;;;;5093663;28;20024;-44
2021/12/09 00:46:15;;;;;;;9.45;3.13;;;2.40;99.90;;;;;;5093796;28;20044;-44
2021/12/09 00:48:41;;;;;;;5.15;3.17;;;2.40;99.90;;;;;;5094119;28;20107;-43
2021/12/09 00:51:08;;;;;;;5.03;2.97;;;2.40;99.90;;;;;;5093262;28;20055;-43
2021/12/09 00:53:34;;;;;;;4.32;3.13;;;2.40;99.90;;;;;;5093921;28;20016;-44
2021/12/09 00:56:00;;;;;;;7.43;2.80;;;2.40;99.90;;;;;;5093307;28;20053;-43
2021/12/09 00:58:26;;;;;;;4.65;2.60;;;2.40;99.90;;;;;;5074665;28;20033;-44
2021/12/09 01:00:51;;;;;;;5.60;3.10;;;2.40;99.90;;;;;;5073600;28;20025;-43
2021/12/09 01:03:17;;;;;;;10.13;2.88;;;2.40;99.90;;;;;;5072786;28;20028;-44
2021/12/09 01:05:44;;;;;;;5.07;3.00;;;2.40;99.90;;;;;;5073434;28;20027;-43
2021/12/09 01:08:11;;;;;;;6.68;3.58;;;2.40;99.90;;;;;;5072983;28;20025;-43
2021/12/09 01:10:38;;;;;;;8.45;3.80;;;2.40;99.90;;;;;;5072953;28;20058;-43
2021/12/09 01:13:04;;;;;;;3.97;2.45;;;2.40;99.90;;;;;;5072947;28;20028;-44
2021/12/09 01:15:30;;;;;;;11.15;4.32;;;2.30;99.90;;;;;;5073432;28;20020;-43
2021/12/09 01:17:56;;;;;;;6.53;3.60;;;2.30;99.90;;;;;;5072665;28;20104;-44
2021/12/09 01:20:26;;;;;;;7.28;3.85;;;2.30;99.90;;;;;;5072976;28;20095;-43
2021/12/09 01:22:54;;;;;;;6.60;3.25;;;2.30;99.90;;;;;;5073156;28;20025;-43
2021/12/09 01:25:21;;;;;;;6.50;3.17;;;2.20;99.90;;;;;;5072162;28;20557;-43
2021/12/09 01:27:48;;;;;;;8.77;3.22;;;2.20;99.90;;;;;;5085459;28;20023;-42
2021/12/09 01:30:18;;;;;;;6.25;3.60;;;2.20;99.90;;;;;;5093086;28;20028;-43
2021/12/09 01:32:50;;;;;;;11.38;3.15;;;2.20;99.90;;;;;;5090972;28;20032;-44
2021/12/09 01:35:22;;;;;;;4.53;2.97;;;2.20;99.90;;;;;;5092864;28;20050;-43
2021/12/09 01:37:48;;;;;;;6.43;3.75;;;2.20;99.90;;;;;;5093079;28;20054;-43
2021/12/09 01:40:15;;;;;;;15.93;2.90;;;2.20;99.90;;;;;;5092475;28;20024;-43
2021/12/09 01:42:42;;;;;;;7.18;4.15;;;2.20;99.90;;;;;;5075092;28;20024;-44
2021/12/09 01:45:09;;;;;;;7.05;3.83;;;2.20;99.90;;;;;;5092732;28;20039;-43
2021/12/09 01:47:34;;;;;;;10.70;3.50;;;2.10;99.90;;;;;;5092454;28;20020;-43
2021/12/09 01:50:00;;;;;;;9.30;3.40;;;2.10;99.90;;;;;;5092756;28;20032;-44
2021/12/09 01:52:26;;;;;;;11.80;3.83;;;2.10;99.90;;;;;;5092467;28;20024;-43
2021/12/09 01:54:51;;;;;;;6.82;3.30;;;2.10;99.90;;;;;;5092843;28;20024;-43
2021/12/09 01:57:18;;;;;;;7.22;3.60;;;2.10;99.90;;;;;;5081228;28;20045;-43
2021/12/09 01:59:44;;;;;;;7.95;3.83;;;2.10;99.90;;;;;;5072009;28;20561;-44
2021/12/09 02:02:10;;;;;;;6.63;3.65;;;2.10;99.90;;;;;;5072244;28;20104;-42
2021/12/09 02:04:35;;;;;;;5.40;3.25;;;2.10;99.90;;;;;;5072645;28;20434;-43
2021/12/09 02:07:01;;;;;;;10.43;4.07;;;2.00;99.90;;;;;;5053617;28;20123;-44
2021/12/09 02:09:26;;;;;;;13.57;4.30;;;2.00;99.90;;;;;;5072499;28;20032;-43
2021/12/09 02:11:52;;;;;;;11.90;4.03;;;2.00;99.90;;;;;;5072690;28;20052;-44
2021/12/09 02:14:17;;;;;;;5.22;3.30;;;2.00;99.90;;;;;;5071725;28;20028;-43
2021/12/09 02:16:43;;;;;;;4.47;3.67;;;2.00;99.90;;;;;;5072498;28;20032;-43
2021/12/09 02:19:11;;;;;;;10.10;4.10;;;2.00;99.90;;;;;;5071975;28;20423;-44
2021/12/09 02:21:37;;;;;;;7.68;3.95;;;2.00;99.90;;;;;;5071912;28;20104;-44
2021/12/09 02:24:11;;;;;;;12.23;4.55;;;2.00;99.90;;;;;;5071969;28;20430;-43
2021/12/09 02:26:41;;;;;;;7.75;4.00;;;2.00;99.90;;;;;;5073277;28;20040;-45
2021/12/09 02:29:09;;;;;;;10.25;4.30;;;1.90;99.90;;;;;;5071335;28;20115;-43
2021/12/09 02:31:35;;;;;;;6.65;4.03;;;2.00;99.90;;;;;;5072357;28;20020;-43
2021/12/09 02:34:01;;;;;;;12.93;4.88;;;2.00;99.90;;;;;;5071954;28;20506;-45
2021/12/09 02:36:29;;;;;;;7.28;4.10;;;1.90;99.90;;;;;;5071822;28;20049;-43
2021/12/09 02:38:55;;;;;;;6.22;4.43;;;1.90;99.90;;;;;;5075522;28;20110;-45
2021/12/09 02:41:24;;;;;;;8.20;3.92;;;1.90;99.90;;;;;;5076622;28;20032;-43
2021/12/09 02:43:51;;;;;;;;;;;1.80;99.90;;;;;;5076114;28;20516;-44
2021/12/09 02:46:17;;;;;;;15.00;5.03;;;1.80;99.90;;;;;;5075729;28;20255;-43
2021/12/09 02:48:45;;;;;;;6.95;4.75;;;1.80;99.90;;;;;;5075539;28;20100;-43
2021/12/09 02:51:11;;;;;;;7.87;3.97;;;1.80;99.90;;;;;;5075804;28;20028;-43
2021/12/09 02:53:37;;;;;;;8.15;3.92;;;1.80;99.90;;;;;;5076174;28;20017;-42
2021/12/09 02:56:04;;;;;;;6.50;3.97;;;1.80;99.90;;;;;;5074740;28;20091;-45
2021/12/09 02:58:30;;;;;;;7.55;3.80;;;1.80;99.90;;;;;;5076998;28;20028;-43
2021/12/09 03:01:01;;;;;;;10.73;4.47;;;1.80;99.90;;;;;;5084643;28;20016;-44
2021/12/09 03:03:27;;;;;;;7.85;4.30;;;1.80;99.90;;;;;;5095690;28;20043;-44
2021/12/09 03:05:55;;;;;;;10.27;5.47;;;1.80;99.90;;;;;;5095955;28;20066;-44
2021/12/09 03:08:33;;;;;;;7.00;4.63;;;1.80;99.90;;;;;;5096075;28;20020;-44
2021/12/09 03:11:04;;;;;;;7.77;4.53;;;1.80;99.90;;;;;;5095317;28;20031;-43
2021/12/09 03:13:30;;;;;;;6.88;3.97;;;1.80;99.90;;;;;;5095952;28;20028;-43
2021/12/09 03:15:56;;;;;;;10.02;4.93;;;1.80;99.90;;;;;;5094122;28;20065;-45
2021/12/09 03:18:21;;;;;;;7.63;4.78;;;1.80;99.90;;;;;;5095044;28;20031;-43
2021/12/09 03:20:47;;;;;;;16.08;5.07;;;1.80;99.90;;;;;;5095848;28;20020;-43
2021/12/09 03:23:12;;;;;;;8.00;4.68;;;1.80;99.90;;;;;;5095591;28;20028;-42
2021/12/09 03:25:38;;;;;;;12.80;5.57;;;1.80;99.90;;;;;;5095288;28;20028;-43
2021/12/09 03:28:04;;;;;;;10.65;4.28;;;1.70;99.90;;;;;;5095414;28;20439;-44
2021/12/09 03:30:29;;;;;;;11.50;4.70;;;1.70;99.90;;;;;;5082269;28;20023;-43
2021/12/09 03:32:56;;;;;;;8.95;4.28;;;1.70;99.90;;;;;;5095160;28;20103;-47
2021/12/09 03:35:22;;;;;;;8.98;4.43;;;1.70;99.90;;;;;;5079529;28;20025;-44
2021/12/09 03:37:48;;;;;;;7.90;5.13;;;1.70;99.90;;;;;;5075155;28;20025;-43
2021/12/09 03:40:15;;;;;;;13.27;5.25;;;1.70;99.90;;;;;;5074384;28;20024;-43
2021/12/09 03:42:41;;;;;;;9.95;4.05;;;1.70;99.90;;;;;;5075111;28;20024;-43
2021/12/09 03:45:08;;;;;;;10.60;4.93;;;1.70;99.90;;;;;;5074248;28;20067;-44
2021/12/09 03:47:35;;;;;;;10.45;4.97;;;1.70;99.90;;;;;;5075091;28;20024;-43
2021/12/09 03:50:03;;;;;;;9.93;4.97;;;1.70;99.90;;;;;;5074764;28;20103;-44
2021/12/09 03:52:29;;;;;;;;;;;1.70;99.90;;;;;;5074663;28;20028;-42
2021/12/09 03:54:56;;;;;;;6.28;3.90;;;1.70;99.90;;;;;;5075033;28;19999;-43
2021/12/09 03:57:22;;;;;;;10.55;5.35;;;1.70;99.90;;;;;;5074241;28;20051;-43
2021/12/09 03:59:48;;;;;;;16.65;5.30;;;1.70;99.90;;;;;;5074331;28;20052;-44
2021/12/09 04:02:16;;;;;;;12.07;5.53;;;1.70;99.90;;;;;;5074388;28;20075;-44
2021/12/09 04:04:43;;;;;;;10.23;5.13;;;1.70;99.90;;;;;;5088467;28;20040;-43
2021/12/09 04:07:09;;;;;;;11.65;5.97;;;1.70;99.90;;;;;;5093452;28;20054;-43
2021/12/09 04:09:35;;;;;;;7.78;4.97;;;1.70;99.90;;;;;;5094967;28;20047;-43
2021/12/09 04:12:01;;;;;;;10.85;4.68;;;1.70;99.90;;;;;;5094474;28;20034;-45
2021/12/09 04:14:26;;;;;;;8.27;4.70;;;1.70;99.90;;;;;;5094307;28;20019;-43
2021/12/09 04:16:52;;;;;;;12.82;5.18;;;1.70;99.90;;;;;;5094848;28;20020;-43
2021/12/09 04:19:18;;;;;;;10.32;4.88;;;1.70;99.90;;;;;;5094453;28;20095;-44
2021/12/09 04:21:45;;;;;;;14.07;4.72;;;1.60;99.90;;;;;;5094185;28;20024;-43
2021/12/09 04:24:13;;;;;;;9.18;4.35;;;1.70;99.90;;;;;;5094225;28;20103;-43
2021/12/09 04:26:41;;;;;;;8.73;4.43;;;1.70;99.90;;;;;;5094547;28;20084;-43
2021/12/09 04:29:08;;;;;;;7.50;4.38;;;1.60;99.90;;;;;;5093844;28;20024;-43
2021/12/09 04:31:34;;;;;;;12.70;4.80;;;1.60;99.90;;;;;;5094413;28;20082;-43
2021/12/09 04:34:00;;;;;;;9.30;5.20;;;1.60;99.90;;;;;;5085866;28;20051;-43
2021/12/09 04:36:26;;;;;;;9.35;4.95;;;1.60;99.90;;;;;;5073696;28;20052;-44
2021/12/09 04:38:52;;;;;;;8.18;4.38;;;1.60;99.90;;;;;;5074078;28;20173;-44
2021/12/09 04:41:19;;;;;;;8.48;5.53;;;1.60;99.90;;;;;;5073199;28;20543;-42
2021/12/09 04:43:45;;;;;;;9.82;5.22;;;1.60;99.90;;;;;;5073850;28;20028;-43
2021/12/09 04:46:11;;;;;;;7.00;4.90;;;1.60;99.90;;;;;;5073562;28;20097;-43
2021/12/09 04:48:38;;;;;;;12.23;4.78;;;1.50;99.90;;;;;;5073504;28;20021;-43
2021/12/09 04:51:04;;;;;;;10.35;5.47;;;1.50;99.90;;;;;;5073646;28;20360;-43
2021/12/09 04:53:30;;;;;;;8.98;5.00;;;1.50;99.90;;;;;;5073736;28;20025;-43
2021/12/09 04:55:56;;;;;;;11.48;4.50;;;1.50;99.90;;;;;;5072916;28;20415;-45
2021/12/09 04:58:23;;;;;;;19.90;4.93;;;1.50;99.90;;;;;;5073412;28;20028;-44
2021/12/09 05:00:49;;;;;;;9.13;5.00;;;1.50;99.90;;;;;;5073167;28;20116;-43
2021/12/09 05:03:15;;;;;;;6.88;4.00;;;1.50;99.90;;;;;;5073119;28;20017;-43
2021/12/09 05:05:45;;;;;;;9.70;5.20;;;1.50;99.90;;;;;;5093816;28;20090;-43
2021/12/09 05:08:14;;;;;;;11.32;4.28;;;1.40;99.90;;;;;;5093496;28;20024;-44
2021/12/09 05:10:55;;;;;;;;;;;1.40;99.90;;;;;;5093688;28;20024;-43
2021/12/09 05:13:24;;;;;;;7.20;3.92;;;1.40;99.90;;;;;;5086542;28;19930;-43
2021/12/09 05:15:50;;;;;;;8.75;4.53;;;1.40;99.90;;;;;;5086284;28;20374;-43
2021/12/09 05:18:16;;;;;;;12.30;5.70;;;1.40;99.90;;;;;;5092377;28;20502;-43
2021/12/09 05:20:43;;;;;;;7.15;4.53;;;1.40;99.90;;;;;;5093333;28;20016;-43
2021/12/09 05:23:09;;;;;;;11.30;5.15;;;1.40;99.90;;;;;;5093111;28;20016;-43
2021/12/09 05:25:35;;;;;;;8.00;4.47;;;1.40;99.90;;;;;;5092803;28;20112;-45
2021/12/09 05:28:01;;;;;;;10.93;5.43;;;1.40;99.90;;;;;;5093399;28;20055;-43
2021/12/09 05:30:38;;;;;;;15.43;4.72;;;1.40;99.90;;;;;;5092720;28;20077;-44
2021/12/09 05:33:06;;;;;;;12.50;5.28;;;1.40;99.90;;;;;;5093114;28;20028;-44
2021/12/09 05:35:32;;;;;;;13.32;5.15;;;1.40;99.90;;;;;;5093211;28;20062;-42
2021/12/09 05:37:58;;;;;;;11.98;4.38;;;1.40;99.90;;;;;;5091693;28;20070;-44
2021/12/09 05:40:24;;;;;;;10.10;5.22;;;1.40;99.90;;;;;;5084941;28;20483;-43
2021/12/09 05:42:49;;;;;;;14.02;6.28;;;1.40;99.90;;;;;;5072876;28;20028;-43
2021/12/09 05:45:15;;;;;;;12.55;6.40;;;1.30;99.90;;;;;;5082585;28;20024;-43
2021/12/09 05:47:40;;;;;;;11.98;5.32;;;1.40;99.90;;;;;;5093012;28;20077;-44
2021/12/09 05:50:08;;;;;;;14.63;5.43;;;1.30;99.90;;;;;;5092762;28;20107;-44
2021/12/09 05:52:33;;;;;;;9.63;5.55;;;1.40;99.90;;;;;;5092369;28;20024;-43
2021/12/09 05:54:59;;;;;;;8.27;4.75;;;1.40;99.90;;;;;;5079417;28;20069;-45
2021/12/09 05:57:25;;;;;;;14.65;5.55;;;1.30;99.90;;;;;;5075799;28;20052;-44
2021/12/09 05:59:53;;;;;;;17.67;5.93;;;1.30;99.90;;;;;;5080443;28;20028;-43
2021/12/09 06:02:18;;;;;;;7.47;4.68;;;1.30;99.90;;;;;;5072269;28;20028;-42
2021/12/09 06:04:44;;;;;;;14.75;5.35;;;1.30;99.90;;;;;;5091242;28;20020;-43
2021/12/09 06:07:11;;;;;;;12.10;5.28;;;1.40;99.90;;;;;;5092007;28;20030;-43
2021/12/09 06:09:36;;;;;;;9.23;4.95;;;1.30;99.90;;;;;;5092504;28;20389;-43
2021/12/09 06:12:04;;;;;;;14.48;5.05;;;1.30;99.90;;;;;;5091478;28;20012;-42
2021/12/09 06:14:30;;;;;;;7.63;5.00;;;1.30;99.90;;;;;;5092046;28;20077;-42
2021/12/09 06:16:56;;;;;;;10.23;5.07;;;1.30;99.90;;;;;;5073289;28;20012;-44
2021/12/09 06:19:21;;;;;;;11.60;5.82;;;1.30;99.90;;;;;;5072322;28;20020;-43
2021/12/09 06:21:47;;;;;;;11.50;5.82;;;1.30;99.90;;;;;;5071823;28;20017;-43
2021/12/09 06:24:13;;;;;;;12.98;5.90;;;1.30;99.90;;;;;;5072044;28;20016;-43
2021/12/09 06:26:38;;;;;;;12.30;5.32;;;1.30;99.90;;;;;;5071998;28;20025;-44
2021/12/09 06:29:07;;;;;;;16.65;5.85;;;1.30;99.90;;;;;;5071715;28;20016;-43
2021/12/09 06:31:33;;;;;;;12.98;5.60;;;1.30;99.90;;;;;;5072200;28;20506;-43
2021/12/09 06:33:58;;;;;;;9.98;5.30;;;1.30;99.90;;;;;;5071453;28;20025;-44
2021/12/09 06:36:24;;;;;;;10.95;6.38;;;1.20;99.90;;;;;;5072093;28;20020;-42
2021/12/09 06:38:50;;;;;;;11.00;5.75;;;1.30;99.90;;;;;;5072323;28;20020;-43
2021/12/09 06:41:15;;;;;;;16.27;7.22;;;1.20;99.90;;;;;;5071376;28;20471;-42
2021/12/09 06:43:41;;;;;;;9.32;4.97;;;1.20;99.90;;;;;;5072094;28;20024;-43
2021/12/09 06:46:09;;;;;;;8.93;5.32;;;1.30;99.90;;;;;;5071648;28;20056;-43
2021/12/09 06:48:36;;;;;;;14.38;6.20;;;1.20;99.90;;;;;;5071468;28;20032;-43
2021/12/09 06:51:02;;;;;;;9.05;5.38;;;1.20;99.90;;;;;;5071841;28;20020;-43
2021/12/09 06:53:29;;;;;;;13.80;5.03;;;1.20;99.90;;;;;;5090927;28;20103;-43
2021/12/09 06:55:54;;;;;;;14.23;6.15;;;1.20;99.90;;;;;;5090718;28;20044;-43
2021/12/09 06:58:21;;;;;;;7.50;4.60;;;1.20;99.90;;;;;;5072854;28;20050;-43
2021/12/09 07:00:47;;;;;;;9.10;5.18;;;1.30;99.90;;;;;;5071256;28;20020;-44
2021/12/09 07:03:16;;;;;;;11.65;4.82;;;1.20;99.90;;;;;;5070944;28;20017;-43
2021/12/09 07:05:43;;;;;;;;;;;1.20;99.90;;;;;;5072291;28;20070;-44
2021/12/09 07:08:09;;;;;;;11.25;5.22;;;1.20;99.90;;;;;;5071685;28;19904;-44
2021/12/09 07:10:35;;;;;;;8.45;4.75;;;1.20;99.90;;;;;;5071343;28;20379;-42
2021/12/09 07:13:01;;;;;;;10.65;4.78;;;1.20;99.90;;;;;;5071586;28;20475;-43
2021/12/09 07:15:27;;;;;;;7.47;5.57;;;1.20;99.90;;;;;;5071694;28;20021;-44
2021/12/09 07:17:52;;;;;;;11.48;5.60;;;1.20;99.90;;;;;;5071189;28;20076;-43
2021/12/09 07:20:22;;;;;;;13.20;6.03;;;1.20;99.90;;;;;;5071511;28;20095;-43
2021/12/09 07:22:48;;;;;;;16.65;5.63;;;1.20;99.90;;;;;;5071874;28;20032;-44
2021/12/09 07:25:15;;;;;;;10.27;5.63;;;1.20;99.90;;;;;;5074384;28;20020;-44
2021/12/09 07:27:42;;;;;;;12.68;5.65;;;1.20;99.90;;;;;;5083676;28;20024;-42
2021/12/09 07:30:09;;;;;;;11.10;5.03;;;1.20;99.90;;;;;;5074612;28;20032;-44
2021/12/09 07:32:35;;;;;;;11.45;6.32;;;1.10;99.90;;;;;;5075257;28;20043;-43
2021/12/09 07:35:03;;;;;;;18.35;5.45;;;1.20;99.90;;;;;;5075027;28;20051;-43
2021/12/09 07:37:28;;;;;;;11.40;5.50;;;1.10;99.90;;;;;;5074765;28;20464;-42
2021/12/09 07:39:54;;;;;;;9.98;5.15;;;1.20;99.90;;;;;;5075264;28;20077;-42
2021/12/09 07:42:20;;;;;;;13.45;5.47;;;1.10;99.90;;;;;;5075104;28;20103;-43
2021/12/09 07:44:45;;;;;;;13.27;5.65;;;1.10;99.90;;;;;;5074545;28;20075;-43
2021/12/09 07:47:11;;;;;;;14.20;6.18;;;1.20;99.90;;;;;;5074723;28;20039;-43
2021/12/09 07:49:37;;;;;;;10.02;5.60;;;1.10;99.90;;;;;;5074999;28;20028;-43
2021/12/09 07:52:04;;;;;;;10.15;5.47;;;1.20;99.90;;;;;;5074297;28;20057;-43
2021/12/09 07:54:30;;;;;;;9.77;6.47;;;1.20;99.90;;;;;;5074907;28;20020;-43
2021/12/09 07:56:55;;;;;;;19.70;9.70;;;1.20;99.90;;;;;;5080861;28;20036;-43
2021/12/09 07:59:21;;;;;;;15.20;8.55;;;1.20;99.90;;;;;;5094658;28;20053;-45
2021/12/09 08:01:47;;;;;;;21.60;10.85;;;1.20;99.90;;;;;;5095071;28;20020;-43
2021/12/09 08:04:12;;;;;;;18.95;9.73;;;1.20;99.90;;;;;;5094627;28;20077;-43
2021/12/09 08:06:38;;;;;;;13.95;7.43;;;1.20;99.90;;;;;;5080860;28;20115;-43
2021/12/09 08:09:05;;;;;;;14.55;7.55;;;1.20;99.90;;;;;;5087554;28;20017;-44
2021/12/09 08:11:33;;;;;;;14.95;7.85;;;1.20;99.90;;;;;;5074556;28;20112;-43
2021/12/09 08:13:59;;;;;;;12.38;5.30;;;1.30;99.90;;;;;;5073783;28;20024;-44
2021/12/09 08:16:24;;;;;;;11.45;6.13;;;1.30;99.90;;;;;;5074615;28;20112;-45
2021/12/09 08:18:56;;;;;;;7.70;5.18;;;1.30;99.90;;;;;;5074566;28;20050;-44
2021/12/09 08:21:25;;;;;;;8.80;4.72;;;1.30;99.90;;;;;;5073934;28;20029;-43
2021/12/09 08:23:52;;;;;;;13.80;7.32;;;1.30;99.90;;;;;;5074289;28;20017;-44
2021/12/09 08:26:19;;;;;;;12.25;6.72;;;1.40;99.90;;;;;;5073399;28;20028;-44
2021/12/09 08:28:44;;;;;;;12.63;6.53;;;1.40;99.90;;;;;;5081938;28;20024;-43
2021/12/09 08:31:10;;;;;;;14.10;6.55;;;1.50;99.90;;;;;;5092258;28;20020;-43
2021/12/09 08:33:36;;;;;;;20.40;6.55;;;1.50;99.90;;;;;;5093994;28;20020;-43
2021/12/09 08:36:02;;;;;;;14.82;6.25;;;1.60;99.90;;;;;;5093030;28;20107;-44
2021/12/09 08:38:27;;;;;;;17.80;6.97;;;1.60;99.90;;;;;;5094293;28;20028;-44
2021/12/09 08:40:54;;;;;;;14.80;5.47;;;1.60;99.90;;;;;;5094074;28;20024;-43
2021/12/09 08:43:20;;;;;;;7.30;5.13;;;1.60;99.90;;;;;;5094093;28;20035;-43
2021/12/09 08:45:47;;;;;;;12.23;5.65;;;1.70;99.90;;;;;;5094120;28;20516;-43
2021/12/09 08:48:13;;;;;;;10.23;5.75;;;1.70;99.90;;;;;;5093290;28;20027;-44
2021/12/09 08:50:43;;;;;;;19.23;6.30;;;1.70;99.90;;;;;;5094173;28;20023;-43
2021/12/09 08:53:11;;;;;;;13.73;6.28;;;1.80;99.90;;;;;;5093689;28;20023;-42
2021/12/09 08:55:38;;;;;;;7.30;4.85;;;1.80;99.90;;;;;;5093390;28;20079;-44
2021/12/09 08:58:05;;;;;;;10.75;4.97;;;1.80;99.90;;;;;;5092923;28;20024;-44
2021/12/09 09:00:32;;;;;;;9.30;4.57;;;1.90;99.90;;;;;;5088498;28;20063;-44
2021/12/09 09:02:58;;;;;;;13.95;4.60;;;1.90;99.90;;;;;;5072636;28;20021;-43
2021/12/09 09:05:24;;;;;;;8.20;4.88;;;1.90;99.90;;;;;;5073541;28;20060;-42
2021/12/09 09:07:50;;;;;;;10.40;5.03;;;2.00;99.90;;;;;;5073448;28;20042;-44
2021/12/09 09:10:20;;;;;;;16.35;6.82;;;2.00;99.90;;;;;;5072742;28;20535;-43
2021/12/09 09:12:47;;;;;;;10.25;5.22;;;2.10;99.90;;;;;;5073448;28;20563;-45
2021/12/09 09:15:15;;;;;;;9.13;5.13;;;2.10;99.90;;;;;;5073075;28;20024;-43
2021/12/09 09:17:41;;;;;;;;;;;2.10;99.90;;;;;;5073388;28;20024;-43
2021/12/09 09:20:10;;;;;;;14.68;5.05;;;2.20;99.90;;;;;;5073087;28;19966;-44
2021/12/09 09:22:37;;;;;;;11.25;4.78;;;2.20;99.90;;;;;;5072718;28;20038;-43
2021/12/09 09:25:05;;;;;;;17.35;4.63;;;2.30;99.90;;;;;;5073816;28;20359;-44
2021/12/09 09:27:31;;;;;;;9.10;4.20;;;2.30;99.90;;;;;;5087850;28;20032;-43
2021/12/09 09:29:56;;;;;;;10.35;4.45;;;2.40;99.90;;;;;;5079138;28;20479;-43
2021/12/09 09:32:22;;;;;;;14.05;5.68;;;2.40;99.90;;;;;;5093393;28;20031;-42
2021/12/09 09:34:48;;;;;;;11.05;5.10;;;2.50;99.90;;;;;;5085143;28;20495;-43
2021/12/09 09:37:14;;;;;;;9.98;5.25;;;2.50;99.90;;;;;;5071991;28;20016;-43
2021/12/09 09:39:43;;;;;;;7.53;4.50;;;2.50;99.90;;;;;;5072907;28;20050;-43
2021/12/09 09:44:46;;;;;;;6.55;4.75;;;2.60;99.90;;;;;;5076707;28;19908;-45
2021/12/09 09:47:12;;;;;;;11.68;4.35;;;2.60;99.90;;;;;;5087632;28;20059;-45
2021/12/09 09:49:39;;;;;;;7.65;3.90;;;2.70;99.90;;;;;;5090975;28;20371;-43
2021/12/09 09:52:05;;;;;;;17.08;5.38;;;2.80;99.90;;;;;;5090677;28;20489;-44
2021/12/09 09:54:32;;;;;;;7.20;4.38;;;2.70;99.90;;;;;;5085271;28;20024;-43
2021/12/09 09:56:57;;;;;;;5.97;3.85;;;2.80;99.90;;;;;;5085214;28;20093;-44
2021/12/09 09:59:23;;;;;;;13.82;5.45;;;2.80;99.90;;;;;;5081506;28;20123;-43
2021/12/09 10:01:52;;;;;;;10.30;4.43;;;2.90;99.90;;;;;;5088875;28;20020;-43
2021/12/09 10:04:26;;;;;;;13.00;5.03;;;3.00;99.90;;;;;;5091437;28;20455;-42
2021/12/09 10:06:52;;;;;;;15.75;5.53;;;3.00;99.90;;;;;;5079651;28;20047;-44
2021/12/09 10:09:18;;;;;;;13.73;5.75;;;3.10;99.90;;;;;;5082926;28;20038;-46
2021/12/09 10:11:45;;;;;;;10.13;3.80;;;3.20;99.90;;;;;;5082253;28;20156;-44
2021/12/09 10:14:20;;;;;;;13.70;5.05;;;3.20;99.90;;;;;;5089587;28;20023;-42
2021/12/09 10:17:09;;;;;;;8.60;4.07;;;3.30;99.90;;;;;;5086836;28;20036;-44
2021/12/09 10:19:48;;;;;;;7.53;4.45;;;3.40;99.90;;;;;;5090795;28;20525;-44
2021/12/09 10:22:16;;;;;;;5.82;3.22;;;3.50;99.90;;;;;;5090780;28;20028;-43
2021/12/09 10:24:45;;;;;;;7.65;4.50;;;3.60;99.90;;;;;;5091143;28;20479;-43
2021/12/09 10:27:29;;;;;;;9.60;4.22;;;3.60;99.90;;;;;;5089416;28;20424;-43
2021/12/09 10:30:14;;;;;;;7.72;4.38;;;3.70;99.90;;;;;;5088634;28;20031;-46
2021/12/09 10:32:41;;;;;;;7.00;3.35;;;3.70;99.90;;;;;;5088845;28;20039;-43
2021/12/09 10:35:10;;;;;;;10.85;4.32;;;3.70;99.90;;;;;;5088641;28;20461;-43
2021/12/09 10:37:37;;;;;;;4.07;2.97;;;3.70;99.90;;;;;;5089252;28;20016;-44
2021/12/09 10:40:13;;;;;;;9.95;3.40;;;3.70;99.90;;;;;;5091042;28;20027;-45
2021/12/09 10:42:50;;;;;;;10.98;3.95;;;3.80;99.90;;;;;;5089373;28;20062;-44
2021/12/09 10:45:20;;;;;;;10.30;4.20;;;3.80;99.90;;;;;;5086174;28;20044;-44
2021/12/09 10:48:16;;;;;;;15.65;4.57;;;3.80;99.90;;;;;;5090500;28;20073;-44
2021/12/09 10:50:58;;;;;;;10.63;3.30;;;3.70;99.90;;;;;;5091512;28;20481;-43
2021/12/09 10:55:53;;;;;;;5.65;3.00;;;3.70;99.90;;;;;;5090091;28;20647;-43
2021/12/09 10:58:22;;;;;;;7.85;4.10;;;3.70;99.90;;;;;;5090954;28;20153;-44
2021/12/09 11:01:04;;;;;;;11.65;3.85;;;3.70;99.90;;;;;;5095180;28;20024;-44
2021/12/09 11:03:42;;;;;;;16.58;4.60;;;3.80;99.90;;;;;;5094607;28;20510;-43
2021/12/09 11:06:10;;;;;;;9.95;4.30;;;3.80;99.90;;;;;;5090416;28;20062;-43
2021/12/09 11:08:45;;;;;;;7.28;4.05;;;3.80;99.90;;;;;;5092843;28;20024;-44
2021/12/09 11:11:18;;;;;;;7.38;4.40;;;3.80;99.90;;;;;;5091264;28;20101;-45
2021/12/09 11:13:47;;;;;;;7.10;4.25;;;3.80;99.90;;;;;;5090905;28;20401;-45
2021/12/09 11:16:22;;;;;;;9.98;5.30;;;3.90;99.90;;;;;;5091038;28;20026;-46
2021/12/09 11:18:49;;;;;;;12.68;4.85;;;3.80;99.90;;;;;;5093270;28;20058;-44
2021/12/09 11:21:26;;;;;;;9.93;4.85;;;3.90;99.90;;;;;;5092501;28;20035;-43
2021/12/09 11:23:58;;;;;;;21.02;5.93;;;3.90;99.90;;;;;;5094266;28;20024;-43
2021/12/09 11:26:43;;;;;;;10.30;4.90;;;3.90;99.90;;;;;;5093124;28;20043;-43
2021/12/09 11:29:35;;;;;;;14.50;4.68;;;4.00;99.90;;;;;;5093447;28;20028;-46
2021/12/09 11:32:15;;;;;;;15.48;5.68;;;4.00;99.90;;;;;;5093877;28;20448;-43
2021/12/09 11:34:54;;;;;;;14.05;5.80;;;4.00;99.90;;;;;;5093322;28;20017;-44
2021/12/09 11:39:51;;;;;;;14.18;5.75;;;4.00;99.90;;;;;;5093885;28;19904;-45
2021/12/09 11:42:27;;;;;;;16.15;4.97;;;4.00;99.90;;;;;;5093543;28;20028;-45
2021/12/09 11:44:52;;;;;;;8.23;4.72;;;4.10;99.90;;;;;;5092255;28;20491;-46
2021/12/09 11:47:18;;;;;;;10.38;4.18;;;4.10;99.90;;;;;;5091603;28;20028;-45
2021/12/09 11:49:47;;;;;;;10.55;5.28;;;4.10;99.90;;;;;;5094379;28;20569;-44
2021/12/09 11:52:14;;;;;;;13.00;4.85;;;4.10;99.90;;;;;;5092935;28;20414;-43
2021/12/09 11:54:48;;;;;;;7.37;5.33;;;4.10;99.90;;;;;;5093661;28;20455;-44
2021/12/09 11:57:33;;;;;;;10.75;5.43;;;4.10;99.90;;;;;;5091977;28;20286;-45
2021/12/09 12:12:36;;;;;;;14.45;5.57;;;4.00;99.90;;;;;;5089678;28;20082;-44
2021/12/09 12:24:06;;;;;;;10.70;4.80;;;4.00;99.90;;;;;;5092655;28;20040;-45
2021/12/09 12:32:25;;;;;;;15.00;5.75;;;4.10;99.90;;;;;;5092398;28;20702;-43
2021/12/09 12:37:48;;;;;;;10.52;5.65;;;4.20;99.90;;;;;;5075905;28;20040;-45
2021/12/09 12:40:20;;;;;;;11.77;4.57;;;4.30;99.90;;;;;;5090860;28;20085;-44
2021/12/09 12:43:00;;;;;;;9.25;5.15;;;4.30;99.90;;;;;;5091542;28;20136;-45
2021/12/09 12:51:19;;;;;;;13.50;4.82;;;4.30;99.90;;;;;;5090616;28;20031;-43
2021/12/09 12:54:07;;;;;;;12.02;5.68;;;4.30;99.90;;;;;;5089711;28;20043;-43
2021/12/09 12:56:41;;;;;;;10.60;5.80;;;4.40;99.90;;;;;;5090319;28;20051;-45
2021/12/09 12:59:12;;;;;;;15.13;5.57;;;4.40;99.90;;;;;;5090485;28;20487;-45
2021/12/09 13:01:44;;;;;;;11.10;5.22;;;4.40;99.90;;;;;;5087693;28;20489;-45
2021/12/09 13:04:41;;;;;;;14.10;6.30;;;4.40;99.90;;;;;;5091354;28;20028;-45
2021/12/09 13:10:43;;;;;;;10.00;5.38;;;4.40;99.90;;;;;;5091325;28;20463;-44
2021/12/09 13:13:52;;;;;;;12.68;5.50;;;4.30;99.90;;;;;;5091905;28;20043;-45
2021/12/09 13:21:51;;;;;;;8.85;5.35;;;4.40;99.90;;;;;;5084410;28;20040;-44
2021/12/09 13:27:25;;;;;;;9.98;5.47;;;4.40;99.90;;;;;;5091988;28;20032;-44
2021/12/09 13:35:40;;;;;;;13.35;6.80;;;4.50;99.90;;;;;;5070032;28;20126;-44
2021/12/09 13:46:54;;;;;;;16.20;6.63;;;4.50;99.90;;;;;;5071779;28;20434;-43
2021/12/09 13:49:34;;;;;;;12.65;6.15;;;4.50;99.90;;;;;;5084534;28;20028;-45
2021/12/09 13:55:11;;;;;;;19.55;7.28;;;4.50;99.90;;;;;;5092518;28;20042;-44
2021/12/09 13:57:41;;;;;;;15.73;6.32;;;4.50;99.90;;;;;;5089963;28;20643;-43
2021/12/09 14:00:13;;;;;;;16.25;6.90;;;4.50;99.90;;;;;;5090049;28;20110;-44
2021/12/09 14:02:39;;;;;;;13.35;5.82;;;4.50;99.90;;;;;;5088495;28;20020;-44
2021/12/09 14:05:06;;;;;;;16.30;6.93;;;4.50;99.90;;;;;;5091236;28;20425;-43
2021/12/09 14:07:38;;;;;;;16.70;7.05;;;4.50;99.90;;;;;;5084967;28;20494;-44
2021/12/09 14:10:12;;;;;;;14.95;6.90;;;4.50;99.90;;;;;;5075671;28;20023;-44
2021/12/09 14:12:47;;;;;;;14.38;5.85;;;4.60;99.90;;;;;;5082286;28;20410;-45